sensor_id;sensor_type;location;lat;lon;timestamp;pressure;altitude;pressure_sealevel;temperature;humidity
60307;BME280;46155;52.364;6.580;2022-08-21T03:01:43;101460.56;;;15.42;87.66
60307;BME280;46155;52.364;6.580;2022-08-21T03:04:09;101448.16;;;15.41;87.92
60307;BME280;46155;52.364;6.580;2022-08-21T03:06:34;101450.47;;;15.35;88.10
60307;BME280;46155;52.364;6.580;2022-08-21T03:08:59;101447.66;;;15.32;87.81
60307;BME280;46155;52.364;6.580;2022-08-21T03:11:25;101450.16;;;15.29;88.05
60307;BME280;46155;52.364;6.580;2022-08-21T03:13:51;101439.34;;;15.24;87.88
60307;BME280;46155;52.364;6.580;2022-08-21T03:16:17;101439.28;;;15.23;88.31
60307;BME280;46155;52.364;6.580;2022-08-21T03:18:43;101440.84;;;15.19;87.89
60307;BME280;46155;52.364;6.580;2022-08-21T03:21:09;101439.00;;;15.18;87.60
60307;BME280;46155;52.364;6.580;2022-08-21T03:23:34;101443.41;;;15.18;88.01
60307;BME280;46155;52.364;6.580;2022-08-21T03:26:00;101441.41;;;15.13;88.10
60307;BME280;46155;52.364;6.580;2022-08-21T03:28:25;101441.75;;;15.20;87.92
60307;BME280;46155;52.364;6.580;2022-08-21T03:30:52;101440.25;;;15.25;87.51
60307;BME280;46155;52.364;6.580;2022-08-21T03:33:18;101443.91;;;15.27;87.50
60307;BME280;46155;52.364;6.580;2022-08-21T03:35:46;101446.47;;;15.25;87.95
60307;BME280;46155;52.364;6.580;2022-08-21T03:38:12;101435.88;;;15.25;87.87
60307;BME280;46155;52.364;6.580;2022-08-21T03:40:38;101442.66;;;15.20;87.79
60307;BME280;46155;52.364;6.580;2022-08-21T03:43:03;101443.69;;;15.06;88.81
60307;BME280;46155;52.364;6.580;2022-08-21T03:45:30;101445.91;;;14.98;89.09
60307;BME280;46155;52.364;6.580;2022-08-21T03:47:56;101447.06;;;14.87;89.88
60307;BME280;46155;52.364;6.580;2022-08-21T03:50:24;101438.72;;;14.79;90.56
60307;BME280;46155;52.364;6.580;2022-08-21T03:52:49;101444.91;;;14.79;90.49
60307;BME280;46155;52.364;6.580;2022-08-21T03:55:15;101442.78;;;14.72;91.03
60307;BME280;46155;52.364;6.580;2022-08-21T03:57:40;101441.72;;;14.69;91.22
60307;BME280;46155;52.364;6.580;2022-08-21T04:00:06;101442.28;;;14.63;91.80
60307;BME280;46155;52.364;6.580;2022-08-21T04:02:33;101433.97;;;14.57;91.43
60307;BME280;46155;52.364;6.580;2022-08-21T04:04:59;101429.34;;;14.53;91.23
60307;BME280;46155;52.364;6.580;2022-08-21T04:07:24;101449.09;;;14.59;91.86
60307;BME280;46155;52.364;6.580;2022-08-21T04:09:50;101443.56;;;14.55;91.98
60307;BME280;46155;52.364;6.580;2022-08-21T04:12:15;101443.31;;;14.50;92.25
60307;BME280;46155;52.364;6.580;2022-08-21T04:14:40;101441.41;;;14.48;92.38
60307;BME280;46155;52.364;6.580;2022-08-21T04:17:06;101435.03;;;14.44;92.94
60307;BME280;46155;52.364;6.580;2022-08-21T04:19:32;101430.50;;;14.41;92.92
60307;BME280;46155;52.364;6.580;2022-08-21T04:21:57;101434.78;;;14.39;93.09
60307;BME280;46155;52.364;6.580;2022-08-21T04:24:22;101437.34;;;14.38;93.37
60307;BME280;46155;52.364;6.580;2022-08-21T04:26:48;101431.13;;;14.37;93.56
60307;BME280;46155;52.364;6.580;2022-08-21T04:29:13;101430.16;;;14.35;93.06
60307;BME280;46155;52.364;6.580;2022-08-21T04:31:38;101437.28;;;14.36;93.46
60307;BME280;46155;52.364;6.580;2022-08-21T04:34:04;101436.25;;;14.34;93.83
60307;BME280;46155;52.364;6.580;2022-08-21T04:36:31;101437.91;;;14.32;93.88
60307;BME280;46155;52.364;6.580;2022-08-21T04:38:56;101441.13;;;14.26;93.90
60307;BME280;46155;52.364;6.580;2022-08-21T04:41:21;101442.97;;;14.27;94.57
60307;BME280;46155;52.364;6.580;2022-08-21T04:43:47;101442.03;;;14.27;94.75
60307;BME280;46155;52.364;6.580;2022-08-21T04:46:12;101432.75;;;14.19;95.02
60307;BME280;46155;52.364;6.580;2022-08-21T04:48:37;101445.47;;;14.26;94.69
60307;BME280;46155;52.364;6.580;2022-08-21T04:51:06;101442.03;;;14.27;95.00
60307;BME280;46155;52.364;6.580;2022-08-21T04:53:34;101446.50;;;14.28;94.76
60307;BME280;46155;52.364;6.580;2022-08-21T04:56:05;101444.66;;;14.27;95.19
60307;BME280;46155;52.364;6.580;2022-08-21T04:58:34;101440.19;;;14.26;94.96
60307;BME280;46155;52.364;6.580;2022-08-21T05:01:03;101452.75;;;14.30;95.35
60307;BME280;46155;52.364;6.580;2022-08-21T05:03:30;101448.47;;;14.32;95.47
60307;BME280;46155;52.364;6.580;2022-08-21T05:05:58;101453.13;;;14.36;95.19
60307;BME280;46155;52.364;6.580;2022-08-21T05:08:25;101453.13;;;14.36;95.42
60307;BME280;46155;52.364;6.580;2022-08-21T05:10:53;101453.28;;;14.39;95.54
60307;BME280;46155;52.364;6.580;2022-08-21T05:13:18;101445.13;;;14.35;95.33
60307;BME280;46155;52.364;6.580;2022-08-21T05:15:44;101445.19;;;14.36;95.54
60307;BME280;46155;52.364;6.580;2022-08-21T05:18:09;101454.47;;;14.44;95.85
60307;BME280;46155;52.364;6.580;2022-08-21T05:20:35;101464.34;;;14.49;95.79
60307;BME280;46155;52.364;6.580;2022-08-21T05:23:05;101455.59;;;14.50;95.79
60307;BME280;46155;52.364;6.580;2022-08-21T05:25:32;101455.94;;;14.56;95.54
60307;BME280;46155;52.364;6.580;2022-08-21T05:27:57;101451.81;;;14.61;95.30
60307;BME280;46155;52.364;6.580;2022-08-21T05:30:23;101449.44;;;14.66;95.27
60307;BME280;46155;52.364;6.580;2022-08-21T05:32:48;101455.91;;;14.71;95.22
60307;BME280;46155;52.364;6.580;2022-08-21T05:35:14;101456.06;;;14.74;95.72
60307;BME280;46155;52.364;6.580;2022-08-21T05:37:39;101458.22;;;14.81;95.13
60307;BME280;46155;52.364;6.580;2022-08-21T05:40:05;101461.44;;;14.92;94.84
60307;BME280;46155;52.364;6.580;2022-08-21T05:42:32;101465.25;;;14.97;94.64
60307;BME280;46155;52.364;6.580;2022-08-21T05:44:57;101463.00;;;15.05;94.67
60307;BME280;46155;52.364;6.580;2022-08-21T05:47:22;101467.88;;;15.13;94.77
60307;BME280;46155;52.364;6.580;2022-08-21T05:49:48;101459.56;;;15.24;94.33
60307;BME280;46155;52.364;6.580;2022-08-21T05:52:19;101464.69;;;15.37;93.52
60307;BME280;46155;52.364;6.580;2022-08-21T05:54:44;101465.84;;;15.42;92.91
60307;BME280;46155;52.364;6.580;2022-08-21T05:57:10;101466.91;;;15.46;92.30
60307;BME280;46155;52.364;6.580;2022-08-21T05:59:35;101460.88;;;15.48;93.05
60307;BME280;46155;52.364;6.580;2022-08-21T06:02:01;101461.03;;;15.52;93.46
60307;BME280;46155;52.364;6.580;2022-08-21T06:04:27;101451.44;;;15.54;nan
60307;BME280;46155;52.364;6.580;2022-08-21T06:06:52;101450.25;;;15.65;95.41
60307;BME280;46155;52.364;6.580;2022-08-21T06:09:17;101449.59;;;15.87;94.51
60307;BME280;46155;52.364;6.580;2022-08-21T06:11:43;101446.41;;;16.30;94.56
60307;BME280;46155;52.364;6.580;2022-08-21T06:14:08;101445.41;;;16.66;89.92
60307;BME280;46155;52.364;6.580;2022-08-21T06:16:34;101453.31;;;17.03;88.98
60307;BME280;46155;52.364;6.580;2022-08-21T06:18:59;101452.31;;;17.42;88.68
60307;BME280;46155;52.364;6.580;2022-08-21T06:21:24;101447.72;;;17.80;85.71
60307;BME280;46155;52.364;6.580;2022-08-21T06:23:49;101454.09;;;18.05;83.47
60307;BME280;46155;52.364;6.580;2022-08-21T06:26:15;101454.78;;;18.22;83.21
60307;BME280;46155;52.364;6.580;2022-08-21T06:28:41;101456.13;;;18.33;83.17
60307;BME280;46155;52.364;6.580;2022-08-21T06:31:15;101459.38;;;18.49;80.94
60307;BME280;46155;52.364;6.580;2022-08-21T06:33:40;101458.09;;;18.62;81.45
60307;BME280;46155;52.364;6.580;2022-08-21T06:36:06;101463.81;;;18.72;80.29
60307;BME280;46155;52.364;6.580;2022-08-21T06:38:32;101464.28;;;18.85;80.19
60307;BME280;46155;52.364;6.580;2022-08-21T06:40:57;101457.53;;;18.93;78.30
60307;BME280;46155;52.364;6.580;2022-08-21T06:43:22;101457.16;;;19.08;77.85
60307;BME280;46155;52.364;6.580;2022-08-21T06:45:47;101462.06;;;19.20;76.79
60307;BME280;46155;52.364;6.580;2022-08-21T06:48:13;101461.81;;;19.38;77.56
60307;BME280;46155;52.364;6.580;2022-08-21T06:50:38;101467.44;;;19.47;75.64
60307;BME280;46155;52.364;6.580;2022-08-21T06:53:08;101459.88;;;19.59;74.83
60307;BME280;46155;52.364;6.580;2022-08-21T06:55:34;101457.41;;;19.66;72.06
60307;BME280;46155;52.364;6.580;2022-08-21T06:57:59;101456.81;;;19.74;71.20
60307;BME280;46155;52.364;6.580;2022-08-21T07:00:25;101457.03;;;19.79;72.30
60307;BME280;46155;52.364;6.580;2022-08-21T07:02:51;101462.75;;;19.91;72.44
60307;BME280;46155;52.364;6.580;2022-08-21T07:05:17;101459.56;;;20.02;71.53
60307;BME280;46155;52.364;6.580;2022-08-21T07:07:42;101453.75;;;20.15;70.80
60307;BME280;46155;52.364;6.580;2022-08-21T07:10:08;101447.00;;;20.26;69.55
60307;BME280;46155;52.364;6.580;2022-08-21T07:12:33;101448.19;;;20.36;69.47
60307;BME280;46155;52.364;6.580;2022-08-21T07:14:58;101455.72;;;20.51;69.27
60307;BME280;46155;52.364;6.580;2022-08-21T07:17:24;101446.13;;;20.56;68.34
60307;BME280;46155;52.364;6.580;2022-08-21T07:19:49;101441.88;;;20.63;68.74
60307;BME280;46155;52.364;6.580;2022-08-21T07:22:18;101452.31;;;20.84;69.14
60307;BME280;46155;52.364;6.580;2022-08-21T07:24:45;101448.22;;;20.97;66.20
60307;BME280;46155;52.364;6.580;2022-08-21T07:27:11;101443.88;;;21.01;65.08
60307;BME280;46155;52.364;6.580;2022-08-21T07:29:36;101438.66;;;21.04;64.58
60307;BME280;46155;52.364;6.580;2022-08-21T07:32:01;101431.81;;;21.15;65.29
60307;BME280;46155;52.364;6.580;2022-08-21T07:34:27;101436.66;;;21.30;64.15
60307;BME280;46155;52.364;6.580;2022-08-21T07:36:52;101441.28;;;21.36;63.64
60307;BME280;46155;52.364;6.580;2022-08-21T07:39:18;101442.91;;;21.30;62.80
60307;BME280;46155;52.364;6.580;2022-08-21T07:41:43;101442.91;;;21.30;62.29
60307;BME280;46155;52.364;6.580;2022-08-21T07:44:08;101426.41;;;21.45;62.10
60307;BME280;46155;52.364;6.580;2022-08-21T07:46:34;101427.66;;;21.58;62.27
60307;BME280;46155;52.364;6.580;2022-08-21T07:48:59;101426.81;;;21.61;62.13
60307;BME280;46155;52.364;6.580;2022-08-21T07:51:26;101409.25;;;21.71;61.13
60307;BME280;46155;52.364;6.580;2022-08-21T07:53:54;101412.22;;;21.83;62.74
60307;BME280;46155;52.364;6.580;2022-08-21T07:56:20;101417.34;;;21.74;62.09
60307;BME280;46155;52.364;6.580;2022-08-21T07:58:46;101417.53;;;21.81;63.06
60307;BME280;46155;52.364;6.580;2022-08-21T08:01:12;101415.19;;;21.95;60.36
60307;BME280;46155;52.364;6.580;2022-08-21T08:03:39;101416.28;;;22.04;59.96
60307;BME280;46155;52.364;6.580;2022-08-21T08:06:05;101419.25;;;22.16;62.29
60307;BME280;46155;52.364;6.580;2022-08-21T08:08:31;101413.53;;;22.39;61.07
60307;BME280;46155;52.364;6.580;2022-08-21T08:10:57;101417.34;;;22.50;61.35
60307;BME280;46155;52.364;6.580;2022-08-21T08:13:23;101420.41;;;22.68;60.65
60307;BME280;46155;52.364;6.580;2022-08-21T08:15:48;101424.38;;;22.89;59.65
60307;BME280;46155;52.364;6.580;2022-08-21T08:18:14;101429.75;;;22.89;58.37
60307;BME280;46155;52.364;6.580;2022-08-21T08:20:39;101416.38;;;22.91;59.19
60307;BME280;46155;52.364;6.580;2022-08-21T08:23:06;101425.34;;;22.91;57.08
60307;BME280;46155;52.364;6.580;2022-08-21T08:25:32;101421.75;;;22.92;57.67
60307;BME280;46155;52.364;6.580;2022-08-21T08:27:57;101422.63;;;22.90;57.03
60307;BME280;46155;52.364;6.580;2022-08-21T08:30:22;101432.38;;;22.86;58.54
60307;BME280;46155;52.364;6.580;2022-08-21T08:32:49;101422.78;;;22.97;57.96
60307;BME280;46155;52.364;6.580;2022-08-21T08:35:15;101424.91;;;23.14;58.21
60307;BME280;46155;52.364;6.580;2022-08-21T08:37:42;101413.50;;;23.24;57.19
60307;BME280;46155;52.364;6.580;2022-08-21T08:40:13;101417.22;;;23.32;59.49
60307;BME280;46155;52.364;6.580;2022-08-21T08:42:39;101403.81;;;23.32;56.46
60307;BME280;46155;52.364;6.580;2022-08-21T08:45:06;101411.31;;;23.52;56.95
60307;BME280;46155;52.364;6.580;2022-08-21T08:47:35;101402.47;;;23.56;57.37
60307;BME280;46155;52.364;6.580;2022-08-21T08:50:09;101410.53;;;23.58;55.97
60307;BME280;46155;52.364;6.580;2022-08-21T08:52:41;101417.78;;;23.65;56.96
60307;BME280;46155;52.364;6.580;2022-08-21T08:55:30;101406.91;;;23.57;56.26
60307;BME280;46155;52.364;6.580;2022-08-21T08:57:59;101398.22;;;23.70;56.49
60307;BME280;46155;52.364;6.580;2022-08-21T09:00:25;101401.78;;;23.71;56.16
60307;BME280;46155;52.364;6.580;2022-08-21T09:02:55;101404.00;;;23.43;56.70
60307;BME280;46155;52.364;6.580;2022-08-21T09:05:24;101406.66;;;23.43;58.47
60307;BME280;46155;52.364;6.580;2022-08-21T09:11:02;101411.94;;;23.89;56.67
60307;BME280;46155;52.364;6.580;2022-08-21T09:16:15;101393.50;;;23.55;53.56
60307;BME280;46155;52.364;6.580;2022-08-21T09:19:17;101406.81;;;23.49;56.43
60307;BME280;46155;52.364;6.580;2022-08-21T09:22:09;101399.88;;;23.62;56.04
60307;BME280;46155;52.364;6.580;2022-08-21T09:24:56;101400.75;;;23.63;54.95
60307;BME280;46155;52.364;6.580;2022-08-21T09:27:28;101401.91;;;23.79;53.69
60307;BME280;46155;52.364;6.580;2022-08-21T09:29:56;101399.84;;;23.61;54.29
60307;BME280;46155;52.364;6.580;2022-08-21T09:32:25;101408.00;;;23.68;55.26
60307;BME280;46155;52.364;6.580;2022-08-21T09:35:00;101400.00;;;23.71;55.23
60307;BME280;46155;52.364;6.580;2022-08-21T09:37:30;101409.25;;;23.87;52.88
60307;BME280;46155;52.364;6.580;2022-08-21T09:39:57;101404.03;;;24.00;54.73
60307;BME280;46155;52.364;6.580;2022-08-21T09:42:29;101407.69;;;24.03;53.34
60307;BME280;46155;52.364;6.580;2022-08-21T09:45:17;101406.09;;;24.18;53.37
60307;BME280;46155;52.364;6.580;2022-08-21T09:47:43;101401.63;;;24.18;52.97
60307;BME280;46155;52.364;6.580;2022-08-21T09:50:17;101393.50;;;24.12;53.85
60307;BME280;46155;52.364;6.580;2022-08-21T09:52:45;101403.63;;;24.33;53.22
60307;BME280;46155;52.364;6.580;2022-08-21T09:55:20;101395.81;;;24.50;52.56
60307;BME280;46155;52.364;6.580;2022-08-21T09:58:04;101395.09;;;24.64;50.88
60307;BME280;46155;52.364;6.580;2022-08-21T10:00:32;101401.44;;;24.67;51.57
60307;BME280;46155;52.364;6.580;2022-08-21T10:03:13;101397.72;;;24.59;51.96
60307;BME280;46155;52.364;6.580;2022-08-21T10:05:40;101395.41;;;24.21;52.00
60307;BME280;46155;52.364;6.580;2022-08-21T10:08:16;101389.47;;;24.45;51.53
60307;BME280;46155;52.364;6.580;2022-08-21T10:10:42;101393.41;;;24.72;53.09
60307;BME280;46155;52.364;6.580;2022-08-21T10:13:22;101399.75;;;24.75;50.64
60307;BME280;46155;52.364;6.580;2022-08-21T10:32:02;101394.75;;;24.36;52.39
60307;BME280;46155;52.364;6.580;2022-08-21T10:37:25;101386.53;;;24.96;50.83
60307;BME280;46155;52.364;6.580;2022-08-21T10:43:08;101395.66;;;25.12;49.46
60307;BME280;46155;52.364;6.580;2022-08-21T10:45:45;101392.91;;;25.05;48.17
60307;BME280;46155;52.364;6.580;2022-08-21T10:48:22;101385.69;;;25.00;49.82
60307;BME280;46155;52.364;6.580;2022-08-21T10:50:58;101383.63;;;24.75;50.33
60307;BME280;46155;52.364;6.580;2022-08-21T10:53:58;101388.19;;;24.84;48.73
60307;BME280;46155;52.364;6.580;2022-08-21T10:56:34;101387.19;;;24.74;49.81
60307;BME280;46155;52.364;6.580;2022-08-21T10:59:20;101393.97;;;24.48;50.36
60307;BME280;46155;52.364;6.580;2022-08-21T11:02:03;101383.19;;;24.43;48.87
60307;BME280;46155;52.364;6.580;2022-08-21T11:04:57;101378.69;;;24.39;48.61
60307;BME280;46155;52.364;6.580;2022-08-21T11:07:31;101381.31;;;24.34;49.95
60307;BME280;46155;52.364;6.580;2022-08-21T11:10:03;101383.00;;;24.29;50.51
60307;BME280;46155;52.364;6.580;2022-08-21T11:12:40;101378.50;;;24.27;50.05
60307;BME280;46155;52.364;6.580;2022-08-21T11:17:40;101379.66;;;24.46;48.71
60307;BME280;46155;52.364;6.580;2022-08-21T11:20:15;101381.06;;;24.17;47.95
60307;BME280;46155;52.364;6.580;2022-08-21T11:22:56;101389.72;;;23.96;48.92
60307;BME280;46155;52.364;6.580;2022-08-21T11:25:29;101393.31;;;24.00;50.73
60307;BME280;46155;52.364;6.580;2022-08-21T11:28:06;101384.66;;;24.18;51.53
60307;BME280;46155;52.364;6.580;2022-08-21T11:33:23;101388.72;;;24.55;49.60
60307;BME280;46155;52.364;6.580;2022-08-21T11:35:55;101378.16;;;24.68;50.70
60307;BME280;46155;52.364;6.580;2022-08-21T11:38:40;101380.13;;;24.83;49.21
60307;BME280;46155;52.364;6.580;2022-08-21T11:41:19;101381.97;;;24.87;47.62
60307;BME280;46155;52.364;6.580;2022-08-21T11:44:02;101382.75;;;24.77;48.81
60307;BME280;46155;52.364;6.580;2022-08-21T11:46:47;101383.59;;;24.72;50.71
60307;BME280;46155;52.364;6.580;2022-08-21T11:49:28;101383.38;;;24.55;50.35
60307;BME280;46155;52.364;6.580;2022-08-21T11:52:08;101383.22;;;24.45;49.33
60307;BME280;46155;52.364;6.580;2022-08-21T11:54:37;101379.50;;;24.33;49.57
60307;BME280;46155;52.364;6.580;2022-08-21T11:57:08;101381.13;;;24.22;50.08
60307;BME280;46155;52.364;6.580;2022-08-21T12:00:06;101374.03;;;24.26;49.89
60307;BME280;46155;52.364;6.580;2022-08-21T12:02:43;101378.75;;;24.47;50.56
60307;BME280;46155;52.364;6.580;2022-08-21T12:05:22;101370.94;;;24.62;50.31
60307;BME280;46155;52.364;6.580;2022-08-21T12:08:01;101370.94;;;24.62;49.25
60307;BME280;46155;52.364;6.580;2022-08-21T12:10:33;101361.13;;;24.63;49.98
60307;BME280;46155;52.364;6.580;2022-08-21T12:13:07;101369.34;;;24.77;50.73
60307;BME280;46155;52.364;6.580;2022-08-21T12:15:33;101367.56;;;24.82;49.43
60307;BME280;46155;52.364;6.580;2022-08-21T12:25:39;101376.75;;;24.29;50.44
60307;BME280;46155;52.364;6.580;2022-08-21T12:28:10;101370.53;;;24.31;50.61
60307;BME280;46155;52.364;6.580;2022-08-21T12:30:39;101373.25;;;24.34;50.66
60307;BME280;46155;52.364;6.580;2022-08-21T12:38:45;101373.72;;;24.70;50.29
60307;BME280;46155;52.364;6.580;2022-08-21T12:41:18;101372.88;;;24.72;49.23
60307;BME280;46155;52.364;6.580;2022-08-21T12:43:50;101374.63;;;24.72;49.42
60307;BME280;46155;52.364;6.580;2022-08-21T12:46:51;101373.53;;;24.56;48.78
60307;BME280;46155;52.364;6.580;2022-08-21T12:49:23;101383.47;;;24.62;49.24
60307;BME280;46155;52.364;6.580;2022-08-21T12:52:11;101381.75;;;24.68;50.04
60307;BME280;46155;52.364;6.580;2022-08-21T12:54:44;101380.16;;;24.86;50.34
60307;BME280;46155;52.364;6.580;2022-08-21T12:59:54;101373.13;;;24.97;48.80
60307;BME280;46155;52.364;6.580;2022-08-21T13:02:23;101380.31;;;25.00;48.65
60307;BME280;46155;52.364;6.580;2022-08-21T13:04:50;101374.94;;;25.01;48.57
60307;BME280;46155;52.364;6.580;2022-08-21T13:07:24;101365.03;;;24.94;48.18
60307;BME280;46155;52.364;6.580;2022-08-21T13:09:53;101371.31;;;24.96;49.01
60307;BME280;46155;52.364;6.580;2022-08-21T13:12:21;101369.59;;;25.04;47.72
60307;BME280;46155;52.364;6.580;2022-08-21T13:14:49;101360.66;;;25.02;47.71
60307;BME280;46155;52.364;6.580;2022-08-21T13:17:20;101357.78;;;24.85;49.36
60307;BME280;46155;52.364;6.580;2022-08-21T13:20:09;101360.66;;;25.02;48.95
60307;BME280;46155;52.364;6.580;2022-08-21T13:22:42;101356.16;;;25.03;46.17
60307;BME280;46155;52.364;6.580;2022-08-21T13:25:12;101357.19;;;25.19;47.84
60307;BME280;46155;52.364;6.580;2022-08-21T13:27:39;101359.06;;;25.26;46.73
60307;BME280;46155;52.364;6.580;2022-08-21T13:30:17;101357.44;;;25.40;46.90
60307;BME280;46155;52.364;6.580;2022-08-21T13:32:45;101351.16;;;25.38;45.70
60307;BME280;46155;52.364;6.580;2022-08-21T13:35:18;101337.53;;;25.23;46.69
60307;BME280;46155;52.364;6.580;2022-08-21T13:37:46;101352.63;;;25.08;47.57
60307;BME280;46155;52.364;6.580;2022-08-21T13:40:24;101345.41;;;25.00;46.15
60307;BME280;46155;52.364;6.580;2022-08-21T13:42:51;101344.38;;;24.87;45.58
60307;BME280;46155;52.364;6.580;2022-08-21T13:45:22;101347.97;;;24.89;46.64
60307;BME280;46155;52.364;6.580;2022-08-21T13:47:48;101348.81;;;24.86;46.74
60307;BME280;46155;52.364;6.580;2022-08-21T13:50:15;101347.03;;;24.82;47.39
60307;BME280;46155;52.364;6.580;2022-08-21T13:52:54;101348.78;;;24.83;46.68
60307;BME280;46155;52.364;6.580;2022-08-21T13:55:20;101354.16;;;24.83;45.38
60307;BME280;46155;52.364;6.580;2022-08-21T13:57:45;101349.63;;;24.78;46.12
60307;BME280;46155;52.364;6.580;2022-08-21T14:02:46;101346.00;;;24.72;46.77
60307;BME280;46155;52.364;6.580;2022-08-21T14:05:24;101347.72;;;24.64;45.77
60307;BME280;46155;52.364;6.580;2022-08-21T14:08:13;101343.19;;;24.62;46.95
60307;BME280;46155;52.364;6.580;2022-08-21T14:10:45;101339.66;;;24.66;46.98
60307;BME280;46155;52.364;6.580;2022-08-21T14:13:34;101342.31;;;24.61;47.33
60307;BME280;46155;52.364;6.580;2022-08-21T14:16:03;101344.00;;;24.56;47.17
60307;BME280;46155;52.364;6.580;2022-08-21T14:18:46;101344.00;;;24.57;46.81
60307;BME280;46155;52.364;6.580;2022-08-21T14:21:12;101340.34;;;24.52;46.93
60307;BME280;46155;52.364;6.580;2022-08-21T14:23:38;101338.47;;;24.42;48.05
60307;BME280;46155;52.364;6.580;2022-08-21T14:26:06;101338.63;;;24.56;47.11
60307;BME280;46155;52.364;6.580;2022-08-21T14:28:34;101338.50;;;24.47;46.79
60307;BME280;46155;52.364;6.580;2022-08-21T14:31:18;101343.72;;;24.33;47.60
60307;BME280;46155;52.364;6.580;2022-08-21T14:33:43;101336.59;;;24.36;47.86
60307;BME280;46155;52.364;6.580;2022-08-21T14:36:09;101340.22;;;24.38;48.14
60307;BME280;46155;52.364;6.580;2022-08-21T14:38:36;101343.84;;;24.44;47.76
60307;BME280;46155;52.364;6.580;2022-08-21T14:41:28;101343.59;;;24.25;48.47
60307;BME280;46155;52.364;6.580;2022-08-21T14:43:55;101340.09;;;24.29;49.19
60307;BME280;46155;52.364;6.580;2022-08-21T14:46:24;101347.22;;;24.27;49.13
60307;BME280;46155;52.364;6.580;2022-08-21T14:48:50;101342.81;;;24.32;49.54
60307;BME280;46155;52.364;6.580;2022-08-21T14:51:16;101340.22;;;24.38;49.33
60307;BME280;46155;52.364;6.580;2022-08-21T14:53:41;101339.31;;;24.41;49.17
60307;BME280;46155;52.364;6.580;2022-08-21T14:56:06;101350.13;;;24.44;50.22
60307;BME280;46155;52.364;6.580;2022-08-21T14:58:34;101341.13;;;24.42;49.41
60307;BME280;46155;52.364;6.580;2022-08-21T15:01:01;101340.25;;;24.41;49.75
60307;BME280;46155;52.364;6.580;2022-08-21T15:03:29;101338.47;;;24.44;48.90
60307;BME280;46155;52.364;6.580;2022-08-21T15:05:54;101346.59;;;24.48;48.45
60307;BME280;46155;52.364;6.580;2022-08-21T15:08:20;101340.44;;;24.57;48.70
60307;BME280;46155;52.364;6.580;2022-08-21T15:10:45;101338.63;;;24.57;49.41
60307;BME280;46155;52.364;6.580;2022-08-21T15:13:11;101341.22;;;24.48;49.52
60307;BME280;46155;52.364;6.580;2022-08-21T15:15:42;101341.31;;;24.56;50.46
60307;BME280;46155;52.364;6.580;2022-08-21T15:18:09;101341.28;;;24.54;50.02
60307;BME280;46155;52.364;6.580;2022-08-21T15:20:35;101339.41;;;24.46;51.86
60307;BME280;46155;52.364;6.580;2022-08-21T15:23:01;101341.13;;;24.40;52.48
60307;BME280;46155;52.364;6.580;2022-08-21T15:25:26;101341.78;;;24.22;54.21
60307;BME280;46155;52.364;6.580;2022-08-21T15:27:51;101342.50;;;24.08;55.24
60307;BME280;46155;52.364;6.580;2022-08-21T15:30:17;101336.31;;;24.15;53.43
60307;BME280;46155;52.364;6.580;2022-08-21T15:32:42;101331.88;;;24.18;53.72
60307;BME280;46155;52.364;6.580;2022-08-21T15:35:08;101343.25;;;23.97;55.19
60307;BME280;46155;52.364;6.580;2022-08-21T15:37:33;101343.03;;;23.85;56.19
60307;BME280;46155;52.364;6.580;2022-08-21T15:39:59;101339.22;;;23.67;56.88
60307;BME280;46155;52.364;6.580;2022-08-21T15:42:26;101346.09;;;23.53;57.19
60307;BME280;46155;52.364;6.580;2022-08-21T15:44:52;101346.00;;;23.45;57.51
60307;BME280;46155;52.364;6.580;2022-08-21T15:47:21;101358.53;;;23.48;57.24
60307;BME280;46155;52.364;6.580;2022-08-21T15:49:47;101349.53;;;23.43;57.74
60307;BME280;46155;52.364;6.580;2022-08-21T15:52:13;101355.56;;;23.29;57.85
60307;BME280;46155;52.364;6.580;2022-08-21T15:54:39;101349.44;;;23.36;57.41
60307;BME280;46155;52.364;6.580;2022-08-21T15:57:04;101363.59;;;23.29;57.75
60307;BME280;46155;52.364;6.580;2022-08-21T15:59:32;101353.88;;;23.36;57.50
60307;BME280;46155;52.364;6.580;2022-08-21T16:02:04;101363.78;;;23.42;57.79
60307;BME280;46155;52.364;6.580;2022-08-21T16:04:30;101363.84;;;23.45;56.97
60307;BME280;46155;52.364;6.580;2022-08-21T16:06:55;101361.88;;;23.34;56.83
60307;BME280;46155;52.364;6.580;2022-08-21T16:09:21;101367.03;;;23.22;56.93
60307;BME280;46155;52.364;6.580;2022-08-21T16:11:46;101370.84;;;23.35;57.17
60307;BME280;46155;52.364;6.580;2022-08-21T16:14:14;101373.19;;;23.16;56.91
60307;BME280;46155;52.364;6.580;2022-08-21T16:16:39;101366.13;;;23.21;56.97
60307;BME280;46155;52.364;6.580;2022-08-21T16:19:05;101376.84;;;23.23;57.19
60307;BME280;46155;52.364;6.580;2022-08-21T16:21:31;101373.31;;;23.24;56.98
60307;BME280;46155;52.364;6.580;2022-08-21T16:23:57;101370.53;;;23.18;56.87
60307;BME280;46155;52.364;6.580;2022-08-21T16:26:22;101368.69;;;23.14;56.99
60307;BME280;46155;52.364;6.580;2022-08-21T16:28:50;101376.03;;;23.27;56.41
60307;BME280;46155;52.364;6.580;2022-08-21T16:31:17;101370.59;;;23.21;56.49
60307;BME280;46155;52.364;6.580;2022-08-21T16:33:45;101374.94;;;23.16;56.85
60307;BME280;46155;52.364;6.580;2022-08-21T16:36:13;101371.94;;;23.00;56.21
60307;BME280;46155;52.364;6.580;2022-08-21T16:38:40;101378.22;;;23.01;56.34
60307;BME280;46155;52.364;6.580;2022-08-21T16:41:10;101380.03;;;23.03;56.16
60307;BME280;46155;52.364;6.580;2022-08-21T16:43:37;101381.78;;;23.01;55.50
60307;BME280;46155;52.364;6.580;2022-08-21T16:46:03;101393.34;;;22.99;55.72
60307;BME280;46155;52.364;6.580;2022-08-21T16:48:29;101385.34;;;23.00;56.13
60307;BME280;46155;52.364;6.580;2022-08-21T16:50:57;101395.13;;;22.98;56.47
60307;BME280;46155;52.364;6.580;2022-08-21T16:53:23;101397.88;;;23.01;55.76